createdAt,value
2018-03-18T00:00:01.424Z,0.00
2018-03-18T00:01:01.410Z,0.00
2018-03-18T00:02:01.396Z,0.00
2018-03-18T00:03:01.380Z,0.00
2018-03-18T00:04:01.365Z,0.00
2018-03-18T00:05:01.352Z,0.00
2018-03-18T00:06:01.338Z,0.00
2018-03-18T00:07:01.320Z,0.00
2018-03-18T00:08:01.305Z,0.00
2018-03-18T00:09:01.294Z,0.00
2018-03-18T00:10:01.277Z,0.00
2018-03-18T00:11:01.271Z,0.00
2018-03-18T00:12:01.250Z,0.00
2018-03-18T00:13:01.235Z,0.00
2018-03-18T00:14:01.222Z,0.00
2018-03-18T00:15:01.207Z,0.00
2018-03-18T00:16:01.192Z,0.00
2018-03-18T00:17:01.177Z,0.00
2018-03-18T00:18:01.163Z,0.00
2018-03-18T00:19:01.146Z,0.00
2018-03-18T00:20:01.130Z,0.00
2018-03-18T00:21:01.117Z,0.00
2018-03-18T00:22:01.102Z,0.00
2018-03-18T00:23:01.088Z,0.00
2018-03-18T00:24:01.072Z,0.00
2018-03-18T00:25:01.057Z,0.00
2018-03-18T00:26:01.043Z,0.00
2018-03-18T00:27:01.033Z,0.00
2018-03-18T00:28:01.017Z,0.00
2018-03-18T00:29:01.008Z,0.00
2018-03-18T00:30:00.996Z,0.00
2018-03-18T00:31:00.975Z,0.00
2018-03-18T00:32:00.960Z,0.00
2018-03-18T00:33:00.945Z,0.00
2018-03-18T00:34:00.931Z,0.00
2018-03-18T00:35:00.913Z,0.00
2018-03-18T00:36:00.898Z,0.00
2018-03-18T00:37:00.884Z,0.00
2018-03-18T00:38:00.870Z,0.00
2018-03-18T00:39:00.857Z,0.00
2018-03-18T00:40:00.841Z,0.00
2018-03-18T00:41:00.826Z,0.00
2018-03-18T00:42:00.813Z,0.00
2018-03-18T00:43:00.809Z,0.00
2018-03-18T00:44:00.786Z,0.00
2018-03-18T00:45:00.771Z,0.00
2018-03-18T00:46:00.757Z,0.00
2018-03-18T00:47:00.739Z,0.00
2018-03-18T00:48:00.725Z,0.00
2018-03-18T00:49:00.711Z,0.00
2018-03-18T00:50:00.701Z,0.00
2018-03-18T00:51:00.685Z,0.00
2018-03-18T00:52:00.671Z,0.00
2018-03-18T00:53:00.655Z,0.00
2018-03-18T00:54:00.641Z,0.00
2018-03-18T00:55:00.630Z,0.00
2018-03-18T00:56:00.612Z,0.00
2018-03-18T00:57:00.597Z,0.00
2018-03-18T00:58:00.584Z,0.00
2018-03-18T00:59:00.565Z,0.00
2018-03-18T01:00:00.551Z,0.00
2018-03-18T01:01:00.537Z,0.00
2018-03-18T01:02:00.569Z,0.00
2018-03-18T01:03:00.507Z,0.00
2018-03-18T01:04:00.496Z,0.00
2018-03-18T01:05:00.478Z,0.00
2018-03-18T01:06:00.463Z,0.00
2018-03-18T01:07:00.454Z,0.00
2018-03-18T01:08:00.439Z,0.00
2018-03-18T01:09:00.424Z,0.00
2018-03-18T01:10:00.410Z,0.00
2018-03-18T01:11:00.395Z,0.00
2018-03-18T01:12:00.380Z,0.00
2018-03-18T01:13:00.366Z,0.00
2018-03-18T01:14:00.396Z,0.00
2018-03-18T01:15:00.332Z,0.00
2018-03-18T01:16:00.318Z,0.00
2018-03-18T01:17:00.305Z,0.00
2018-03-18T01:18:00.290Z,0.00
2018-03-18T01:19:00.276Z,0.00
2018-03-18T01:20:00.261Z,0.00
2018-03-18T01:21:00.248Z,0.00
2018-03-18T01:22:00.230Z,0.00
2018-03-18T01:23:00.220Z,0.00
2018-03-18T01:24:00.205Z,0.00
2018-03-18T01:25:00.195Z,0.00
2018-03-18T01:26:00.177Z,0.00
2018-03-18T01:27:00.164Z,0.00
2018-03-18T01:28:00.147Z,0.00
2018-03-18T01:29:00.133Z,0.00
2018-03-18T01:30:00.120Z,0.00
2018-03-18T01:31:00.100Z,0.00
2018-03-18T01:32:00.086Z,0.00
2018-03-18T01:33:00.072Z,0.00
2018-03-18T01:34:00.056Z,0.00
2018-03-18T01:35:00.043Z,0.00
2018-03-18T01:36:00.028Z,0.00
2018-03-18T01:37:00.019Z,0.00
2018-03-18T01:37:59.998Z,0.00
2018-03-18T01:38:59.988Z,0.00
2018-03-18T01:39:59.973Z,0.00
2018-03-18T01:40:59.959Z,0.00
2018-03-18T01:41:59.946Z,0.00
2018-03-18T01:42:59.929Z,0.00
2018-03-18T01:43:59.914Z,0.00
2018-03-18T01:44:59.900Z,0.00
2018-03-18T01:45:59.885Z,0.00
2018-03-18T01:46:59.867Z,0.00
2018-03-18T01:47:59.852Z,0.00
2018-03-18T01:48:59.838Z,0.00
2018-03-18T01:49:59.823Z,0.00
2018-03-18T01:50:59.813Z,0.00
2018-03-18T01:51:59.797Z,0.00
2018-03-18T01:52:59.783Z,0.00
2018-03-18T01:53:59.769Z,0.00
2018-03-18T01:54:59.751Z,0.00
2018-03-18T01:55:59.736Z,0.00
2018-03-18T01:56:59.722Z,0.00
2018-03-18T01:57:59.707Z,0.00
2018-03-18T01:58:59.695Z,0.00
2018-03-18T01:59:59.676Z,0.00
2018-03-18T02:00:59.663Z,0.00
2018-03-18T02:01:59.650Z,0.00
2018-03-18T02:02:59.637Z,0.00
2018-03-18T02:03:59.623Z,0.00
2018-03-18T02:04:59.608Z,0.00
2018-03-18T02:05:59.593Z,0.00
2018-03-18T02:06:59.579Z,0.00
2018-03-18T02:07:59.565Z,0.00
2018-03-18T02:08:59.549Z,0.00
2018-03-18T02:09:59.534Z,0.00
2018-03-18T02:10:59.517Z,0.00
2018-03-18T02:11:59.502Z,0.00
2018-03-18T02:12:59.491Z,0.00
2018-03-18T02:13:59.473Z,0.00
2018-03-18T02:14:59.458Z,0.00
2018-03-18T02:15:59.444Z,0.00
2018-03-18T02:16:59.430Z,0.00
2018-03-18T02:17:59.424Z,0.00
2018-03-18T02:18:59.404Z,0.00
2018-03-18T02:19:59.389Z,0.00
2018-03-18T02:20:59.374Z,0.00
2018-03-18T02:21:59.360Z,0.00
2018-03-18T02:22:59.345Z,0.00
2018-03-18T02:23:59.331Z,0.00
2018-03-18T02:24:59.317Z,0.00
2018-03-18T02:25:59.303Z,0.00
2018-03-18T02:26:59.283Z,0.00
2018-03-18T02:27:59.268Z,0.00
2018-03-18T02:28:59.260Z,0.00
2018-03-18T02:29:59.242Z,0.00
2018-03-18T02:30:59.228Z,0.00
2018-03-18T02:31:59.209Z,0.00
2018-03-18T02:32:59.200Z,0.00
2018-03-18T02:33:59.180Z,0.00
2018-03-18T02:34:59.171Z,0.00
2018-03-18T02:35:59.154Z,0.00
2018-03-18T02:36:59.141Z,0.00
2018-03-18T02:37:59.127Z,0.00
2018-03-18T02:38:59.112Z,0.00
2018-03-18T02:39:59.095Z,0.00
2018-03-18T02:40:59.082Z,0.00
2018-03-18T02:41:59.067Z,0.00
2018-03-18T02:42:59.060Z,0.00
2018-03-18T02:43:59.034Z,0.00
2018-03-18T02:44:59.020Z,0.00
2018-03-18T02:45:59.005Z,0.00
2018-03-18T02:46:58.991Z,0.00
2018-03-18T02:47:58.974Z,0.00
2018-03-18T02:48:58.961Z,0.00
2018-03-18T02:49:58.946Z,0.00
2018-03-18T02:50:58.935Z,0.00
2018-03-18T02:51:58.919Z,0.00
2018-03-18T02:52:58.907Z,0.00
2018-03-18T02:53:58.891Z,0.00
2018-03-18T02:54:58.873Z,0.00
2018-03-18T02:55:58.858Z,0.00
2018-03-18T02:56:58.845Z,0.00
2018-03-18T02:57:58.829Z,0.00
2018-03-18T02:58:58.819Z,0.00
2018-03-18T02:59:58.808Z,0.00
2018-03-18T03:00:58.788Z,0.00
2018-03-18T03:01:58.775Z,0.00
2018-03-18T03:02:58.759Z,0.00
2018-03-18T03:03:58.744Z,0.00
2018-03-18T03:04:58.729Z,0.00
2018-03-18T03:05:58.724Z,0.00
2018-03-18T03:06:58.697Z,0.00
2018-03-18T03:07:58.684Z,0.00
2018-03-18T03:08:58.668Z,0.00
2018-03-18T03:09:58.654Z,0.00
2018-03-18T03:10:58.638Z,0.00
2018-03-18T03:11:58.624Z,0.00
2018-03-18T03:12:58.609Z,0.00
2018-03-18T03:13:58.594Z,0.00
2018-03-18T03:14:58.586Z,0.00
2018-03-18T03:15:58.571Z,0.00
2018-03-18T03:16:58.555Z,0.00
2018-03-18T03:17:58.540Z,0.00
2018-03-18T03:18:58.525Z,0.00
2018-03-18T03:19:58.510Z,0.00
2018-03-18T03:20:58.499Z,0.00
2018-03-18T03:21:58.481Z,0.00
2018-03-18T03:22:58.464Z,0.00
2018-03-18T03:23:58.448Z,0.00
2018-03-18T03:24:58.434Z,0.00
2018-03-18T03:25:58.421Z,0.00
2018-03-18T03:26:58.404Z,0.00
2018-03-18T03:27:58.390Z,0.00
2018-03-18T03:28:58.377Z,0.00
2018-03-18T03:29:58.361Z,0.00
2018-03-18T03:30:58.351Z,0.00
2018-03-18T03:31:58.338Z,0.00
2018-03-18T03:32:58.323Z,0.00
2018-03-18T03:33:58.307Z,0.00
2018-03-18T03:34:58.292Z,0.00
2018-03-18T03:35:58.277Z,0.00
2018-03-18T03:36:58.262Z,0.00
2018-03-18T03:37:58.254Z,0.00
2018-03-18T03:38:58.230Z,0.00
2018-03-18T03:39:58.228Z,0.00
2018-03-18T03:40:58.201Z,0.00
2018-03-18T03:41:58.187Z,0.00
2018-03-18T03:42:58.172Z,0.00
2018-03-18T03:43:58.157Z,0.00
2018-03-18T03:44:58.142Z,0.00
2018-03-18T03:45:58.129Z,0.00
2018-03-18T03:46:58.117Z,0.00
2018-03-18T03:47:58.102Z,0.00
2018-03-18T03:48:58.087Z,0.00
2018-03-18T03:49:58.074Z,0.00
2018-03-18T03:50:58.059Z,0.00
2018-03-18T03:51:58.044Z,0.00
2018-03-18T03:52:58.030Z,0.00
2018-03-18T03:53:58.015Z,0.00
2018-03-18T03:54:57.998Z,0.00
2018-03-18T03:55:57.983Z,0.00
2018-03-18T03:56:57.971Z,0.00
2018-03-18T03:57:57.953Z,0.00
2018-03-18T03:58:57.944Z,0.00
2018-03-18T03:59:57.927Z,0.00
2018-03-18T04:00:57.913Z,0.00
2018-03-18T04:01:57.898Z,0.00
2018-03-18T04:02:57.881Z,0.00
2018-03-18T04:03:57.866Z,0.00
2018-03-18T04:04:57.850Z,0.00
2018-03-18T04:05:57.836Z,0.00
2018-03-18T04:06:57.821Z,0.00
2018-03-18T04:07:57.807Z,0.00
2018-03-18T04:08:57.793Z,0.00
2018-03-18T04:09:57.779Z,0.00
2018-03-18T04:10:57.767Z,0.00
2018-03-18T04:11:57.751Z,0.00
2018-03-18T04:12:57.737Z,0.00
2018-03-18T04:13:57.728Z,0.00
2018-03-18T04:14:57.709Z,0.00
2018-03-18T04:15:57.693Z,0.00
2018-03-18T04:16:57.678Z,0.00
2018-03-18T04:17:57.663Z,0.00
2018-03-18T04:18:57.667Z,0.00
2018-03-18T04:19:57.630Z,0.00
2018-03-18T04:20:57.618Z,0.00
2018-03-18T04:21:57.601Z,0.00
2018-03-18T04:22:57.586Z,0.00
2018-03-18T04:23:57.571Z,0.00
2018-03-18T04:24:57.558Z,0.00
2018-03-18T04:25:57.542Z,0.00
2018-03-18T04:26:57.532Z,0.00
2018-03-18T04:27:57.518Z,0.00
2018-03-18T04:28:57.503Z,0.00
2018-03-18T04:29:57.488Z,0.00
2018-03-18T04:30:57.474Z,0.00
2018-03-18T04:31:57.457Z,0.00
2018-03-18T04:32:57.447Z,0.00
2018-03-18T04:33:57.428Z,0.00
2018-03-18T04:34:57.410Z,0.00
2018-03-18T04:35:57.394Z,0.00
2018-03-18T04:36:57.381Z,0.00
2018-03-18T04:37:57.365Z,0.00
2018-03-18T04:38:57.351Z,0.00
2018-03-18T04:39:57.336Z,0.00
2018-03-18T04:40:57.321Z,0.00
2018-03-18T04:41:57.306Z,0.00
2018-03-18T04:42:57.297Z,0.00
2018-03-18T04:43:57.284Z,0.00
2018-03-18T04:44:57.266Z,0.00
2018-03-18T04:45:57.253Z,0.00
2018-03-18T04:46:57.236Z,0.00
2018-03-18T04:47:57.222Z,0.00
2018-03-18T04:48:57.207Z,0.00
2018-03-18T04:49:57.194Z,0.00
2018-03-18T04:50:57.176Z,0.00
2018-03-18T04:51:57.199Z,0.00
2018-03-18T04:52:57.145Z,0.00
2018-03-18T04:53:57.131Z,0.00
2018-03-18T04:54:57.121Z,0.00
2018-03-18T04:55:57.102Z,0.00
2018-03-18T04:56:57.087Z,0.00
2018-03-18T04:57:57.075Z,0.00
2018-03-18T04:58:57.062Z,0.00
2018-03-18T04:59:57.046Z,0.00
2018-03-18T05:00:57.032Z,0.00
2018-03-18T05:01:57.016Z,0.00
2018-03-18T05:02:56.998Z,0.00
2018-03-18T05:03:56.986Z,0.00
2018-03-18T05:04:56.969Z,0.00
2018-03-18T05:05:56.955Z,0.00
2018-03-18T05:06:56.944Z,0.00
2018-03-18T05:07:56.934Z,0.00
2018-03-18T05:08:56.913Z,0.00
2018-03-18T05:09:56.901Z,0.00
2018-03-18T05:10:56.884Z,0.00
2018-03-18T05:11:56.869Z,0.00
2018-03-18T05:12:56.856Z,0.00
2018-03-18T05:13:56.840Z,0.00
2018-03-18T05:14:56.822Z,0.00
2018-03-18T05:15:56.806Z,0.00
2018-03-18T05:16:56.793Z,0.00
2018-03-18T05:17:56.779Z,0.00
2018-03-18T05:18:56.763Z,4.00
2018-03-18T05:19:56.749Z,4.00
2018-03-18T05:20:56.734Z,0.00
2018-03-18T05:21:56.719Z,4.00
2018-03-18T05:22:56.709Z,4.00
2018-03-18T05:23:56.693Z,4.00
2018-03-18T05:24:56.685Z,4.00
2018-03-18T05:25:56.664Z,4.00
2018-03-18T05:26:56.651Z,8.00
2018-03-18T05:27:56.635Z,8.00
2018-03-18T05:28:56.620Z,12.00
2018-03-18T05:29:56.607Z,12.00
2018-03-18T05:30:56.588Z,12.00
2018-03-18T05:31:56.572Z,16.00
2018-03-18T05:32:56.558Z,16.00
2018-03-18T05:33:56.545Z,16.00
2018-03-18T05:34:56.530Z,20.00
2018-03-18T05:35:56.514Z,20.00
2018-03-18T05:36:56.501Z,24.00
2018-03-18T05:37:56.485Z,24.00
2018-03-18T05:38:56.475Z,28.00
2018-03-18T05:39:56.460Z,32.00
2018-03-18T05:40:56.445Z,36.00
2018-03-18T05:41:56.430Z,40.00
2018-03-18T05:42:56.416Z,44.00
2018-03-18T05:43:56.401Z,48.00
2018-03-18T05:44:56.386Z,52.00
2018-03-18T05:45:56.374Z,52.00
2018-03-18T05:46:56.354Z,52.00
2018-03-18T05:47:56.341Z,56.00
2018-03-18T05:48:56.326Z,56.00
2018-03-18T05:49:56.311Z,64.00
2018-03-18T05:50:56.297Z,68.00
2018-03-18T05:51:56.281Z,68.00
2018-03-18T05:52:56.267Z,76.00
2018-03-18T05:53:56.253Z,84.00
2018-03-18T05:54:56.242Z,92.00
2018-03-18T05:55:56.226Z,100.00
2018-03-18T05:56:56.212Z,100.00
2018-03-18T05:57:56.198Z,112.00
2018-03-18T05:58:56.183Z,116.00
2018-03-18T05:59:56.168Z,124.00
2018-03-18T06:00:56.153Z,136.00
2018-03-18T06:01:56.139Z,144.00
2018-03-18T06:02:56.122Z,148.00
2018-03-18T06:03:56.106Z,164.00
2018-03-18T06:04:56.095Z,172.00
2018-03-18T06:05:56.080Z,184.00
2018-03-18T06:06:56.064Z,196.00
2018-03-18T06:07:56.093Z,212.00
2018-03-18T06:08:56.035Z,220.00
2018-03-18T06:09:56.020Z,228.00
2018-03-18T06:10:56.009Z,232.00
2018-03-18T06:11:55.993Z,248.00
2018-03-18T06:12:55.978Z,256.00
2018-03-18T06:13:55.963Z,276.00
2018-03-18T06:14:55.949Z,292.00
2018-03-18T06:15:55.933Z,308.00
2018-03-18T06:16:55.919Z,316.00
2018-03-18T06:17:55.946Z,324.00
2018-03-18T06:18:55.887Z,324.00
2018-03-18T06:19:55.871Z,328.00
2018-03-18T06:20:55.857Z,332.00
2018-03-18T06:21:55.843Z,348.00
2018-03-18T06:22:55.828Z,364.00
2018-03-18T06:23:55.812Z,388.00
2018-03-18T06:24:55.860Z,412.00
2018-03-18T06:25:55.787Z,432.00
2018-03-18T06:26:55.771Z,436.00
2018-03-18T06:27:55.756Z,440.00
2018-03-18T06:28:55.742Z,456.00
2018-03-18T06:29:55.728Z,480.00
2018-03-18T06:30:55.712Z,500.00
2018-03-18T06:31:55.697Z,496.00
2018-03-18T06:32:55.683Z,480.00
2018-03-18T06:33:55.669Z,464.00
2018-03-18T06:34:55.650Z,448.00
2018-03-18T06:35:55.634Z,448.00
2018-03-18T06:36:55.622Z,456.00
2018-03-18T06:37:55.610Z,460.00
2018-03-18T06:38:55.592Z,464.00
2018-03-18T06:39:55.576Z,480.00
2018-03-18T06:40:55.562Z,500.00
2018-03-18T06:41:55.546Z,520.00
2018-03-18T06:42:55.536Z,532.00
2018-03-18T06:43:55.521Z,552.00
2018-03-18T06:44:55.506Z,576.00
2018-03-18T06:45:55.492Z,600.00
2018-03-18T06:46:55.478Z,620.00
2018-03-18T06:47:55.463Z,628.00
2018-03-18T06:48:55.448Z,632.00
2018-03-18T06:49:55.434Z,628.00
2018-03-18T06:50:55.416Z,628.00
2018-03-18T06:51:55.401Z,644.00
2018-03-18T06:52:55.387Z,668.00
2018-03-18T06:53:55.373Z,688.00
2018-03-18T06:54:55.359Z,688.00
2018-03-18T06:55:55.344Z,692.00
2018-03-18T06:56:55.334Z,692.00
2018-03-18T06:57:55.315Z,716.00
2018-03-18T06:58:55.304Z,736.00
2018-03-18T06:59:55.288Z,768.00
2018-03-18T07:00:55.274Z,828.00
2018-03-18T07:01:55.260Z,876.00
2018-03-18T07:02:55.246Z,904.00
2018-03-18T07:03:55.230Z,932.00
2018-03-18T07:04:55.216Z,924.00
2018-03-18T07:05:55.201Z,908.00
2018-03-18T07:06:55.184Z,920.00
2018-03-18T07:07:55.169Z,904.00
2018-03-18T07:08:55.155Z,900.00
2018-03-18T07:09:55.140Z,888.00
2018-03-18T07:10:55.129Z,892.00
2018-03-18T07:11:55.113Z,908.00
2018-03-18T07:12:55.098Z,912.00
2018-03-18T07:13:55.084Z,920.00
2018-03-18T07:14:55.067Z,932.00
2018-03-18T07:15:55.051Z,932.00
2018-03-18T07:16:55.037Z,936.00
2018-03-18T07:17:55.022Z,932.00
2018-03-18T07:18:55.008Z,940.00
2018-03-18T07:19:54.993Z,932.00
2018-03-18T07:20:54.979Z,920.00
2018-03-18T07:21:54.964Z,920.00
2018-03-18T07:22:54.957Z,964.00
2018-03-18T07:23:54.938Z,988.00
2018-03-18T07:24:54.931Z,1020.00
2018-03-18T07:25:54.914Z,1072.00
2018-03-18T07:26:54.895Z,1104.00
2018-03-18T07:27:54.880Z,1128.00
2018-03-18T07:28:54.867Z,1164.00
2018-03-18T07:29:54.853Z,1240.00
2018-03-18T07:30:54.834Z,1324.00
2018-03-18T07:31:54.819Z,1324.00
2018-03-18T07:32:54.804Z,1332.00
2018-03-18T07:33:54.790Z,1440.00
2018-03-18T07:34:54.775Z,1532.00
2018-03-18T07:35:54.763Z,1544.00
2018-03-18T07:36:54.746Z,1488.00
2018-03-18T07:37:54.732Z,1468.00
2018-03-18T07:38:54.721Z,1480.00
2018-03-18T07:39:54.705Z,1548.00
2018-03-18T07:40:54.691Z,1604.00
2018-03-18T07:41:54.676Z,1644.00
2018-03-18T07:42:54.663Z,1696.00
2018-03-18T07:43:54.647Z,1744.00
2018-03-18T07:44:54.634Z,1764.00
2018-03-18T07:45:54.618Z,1748.00
2018-03-18T07:46:54.601Z,1560.00
2018-03-18T07:47:54.637Z,1664.00
2018-03-18T07:48:54.570Z,2192.00
2018-03-18T07:49:54.557Z,2300.00
2018-03-18T07:50:54.543Z,2340.00
2018-03-18T07:51:54.527Z,2096.00
2018-03-18T07:52:54.512Z,1980.00
2018-03-18T07:53:54.498Z,2444.00
2018-03-18T07:54:54.487Z,2688.00
2018-03-18T07:55:54.472Z,2860.00
2018-03-18T07:56:54.457Z,2732.00
2018-03-18T07:57:54.443Z,2612.00
2018-03-18T07:58:54.430Z,2968.00
2018-03-18T07:59:54.413Z,3236.00
2018-03-18T08:00:54.400Z,3132.00
2018-03-18T08:01:54.397Z,3196.00
2018-03-18T08:02:54.367Z,3032.00
2018-03-18T08:03:54.351Z,2764.00
2018-03-18T08:04:54.338Z,2492.00
2018-03-18T08:05:54.324Z,2368.00
2018-03-18T08:06:54.310Z,2340.00
2018-03-18T08:07:54.294Z,2324.00
2018-03-18T08:08:54.280Z,2408.00
2018-03-18T08:09:54.265Z,2600.00
2018-03-18T08:10:54.256Z,2684.00
2018-03-18T08:11:54.245Z,2764.00
2018-03-18T08:12:54.226Z,2732.00
2018-03-18T08:13:54.213Z,2280.00
2018-03-18T08:14:54.193Z,1892.00
2018-03-18T08:15:54.178Z,1676.00
2018-03-18T08:16:54.163Z,1576.00
2018-03-18T08:17:54.149Z,1652.00
2018-03-18T08:18:54.139Z,1916.00
2018-03-18T08:19:54.124Z,2636.00
2018-03-18T08:20:54.152Z,3496.00
2018-03-18T08:21:54.095Z,3948.00
2018-03-18T08:22:54.081Z,4156.00
2018-03-18T08:23:54.066Z,4324.00
2018-03-18T08:24:54.051Z,4240.00
2018-03-18T08:25:54.039Z,4012.00
2018-03-18T08:26:54.019Z,3768.00
2018-03-18T08:27:54.004Z,3376.00
2018-03-18T08:28:53.989Z,3428.00
2018-03-18T08:29:53.975Z,4220.00
2018-03-18T08:30:53.961Z,4944.00
2018-03-18T08:31:53.949Z,4248.00
2018-03-18T08:32:53.930Z,3424.00
2018-03-18T08:33:53.916Z,3028.00
2018-03-18T08:34:53.906Z,3124.00
2018-03-18T08:35:53.950Z,3604.00
2018-03-18T08:36:53.877Z,4520.00
2018-03-18T08:37:53.862Z,5464.00
2018-03-18T08:38:53.848Z,5640.00
2018-03-18T08:39:53.833Z,5496.00
2018-03-18T08:40:53.819Z,4828.00
2018-03-18T08:41:53.806Z,4024.00
2018-03-18T08:42:53.788Z,3512.00
2018-03-18T08:43:53.774Z,3244.00
2018-03-18T08:44:53.759Z,3356.00
2018-03-18T08:45:53.744Z,3924.00
2018-03-18T08:46:53.737Z,3968.00
2018-03-18T08:47:53.715Z,3548.00
2018-03-18T08:48:53.701Z,2992.00
2018-03-18T08:49:53.687Z,2496.00
2018-03-18T08:50:53.676Z,2460.00
2018-03-18T08:51:53.663Z,3332.00
2018-03-18T08:52:53.648Z,3788.00
2018-03-18T08:53:53.640Z,3984.00
2018-03-18T08:54:53.622Z,3636.00
2018-03-18T08:55:53.605Z,3320.00
2018-03-18T08:56:53.626Z,3332.00
2018-03-18T08:57:53.576Z,3444.00
2018-03-18T08:58:53.559Z,3400.00
2018-03-18T08:59:53.543Z,3236.00
2018-03-18T09:00:53.530Z,2892.00
2018-03-18T09:01:53.516Z,2548.00
2018-03-18T09:02:53.502Z,2096.00
2018-03-18T09:03:53.486Z,1632.00
2018-03-18T09:04:53.472Z,1736.00
2018-03-18T09:05:53.458Z,1972.00
2018-03-18T09:06:53.447Z,2272.00
2018-03-18T09:07:53.431Z,2692.00
2018-03-18T09:08:53.419Z,2984.00
2018-03-18T09:09:53.404Z,2860.00
2018-03-18T09:10:53.390Z,2720.00
2018-03-18T09:11:53.420Z,2604.00
2018-03-18T09:12:53.360Z,2376.00
2018-03-18T09:13:53.346Z,2424.00
2018-03-18T09:14:53.328Z,2892.00
2018-03-18T09:15:53.312Z,3528.00
2018-03-18T09:16:53.298Z,3880.00
2018-03-18T09:17:53.283Z,4148.00
2018-03-18T09:18:53.272Z,4168.00
2018-03-18T09:19:53.257Z,4012.00
2018-03-18T09:20:53.242Z,4024.00
2018-03-18T09:21:53.229Z,3984.00
2018-03-18T09:22:53.209Z,3744.00
2018-03-18T09:23:53.195Z,3480.00
2018-03-18T09:24:53.180Z,3164.00
2018-03-18T09:25:53.166Z,3352.00
2018-03-18T09:26:53.151Z,3776.00
2018-03-18T09:27:53.135Z,4092.00
2018-03-18T09:28:53.122Z,4712.00
2018-03-18T09:29:53.108Z,5420.00
2018-03-18T09:30:53.098Z,5492.00
2018-03-18T09:31:53.081Z,5196.00
2018-03-18T09:32:53.066Z,4912.00
2018-03-18T09:33:53.052Z,4956.00
2018-03-18T09:34:53.037Z,4564.00
2018-03-18T09:35:53.022Z,4504.00
2018-03-18T09:36:53.009Z,4852.00
2018-03-18T09:37:52.993Z,5428.00
2018-03-18T09:38:52.975Z,5584.00
2018-03-18T09:39:52.961Z,5396.00
2018-03-18T09:40:52.945Z,5496.00
2018-03-18T09:41:52.931Z,6296.00
2018-03-18T09:42:52.918Z,6388.00
2018-03-18T09:43:52.901Z,6332.00
2018-03-18T09:44:52.888Z,6428.00
2018-03-18T09:45:52.874Z,6492.00
2018-03-18T09:46:52.863Z,6496.00
2018-03-18T09:47:52.848Z,6300.00
2018-03-18T09:48:52.870Z,6244.00
2018-03-18T09:49:52.819Z,6572.00
2018-03-18T09:50:52.806Z,7632.00
2018-03-18T09:51:52.791Z,7784.00
2018-03-18T09:52:52.777Z,8392.00
2018-03-18T09:53:52.763Z,9112.00
2018-03-18T09:54:52.745Z,9292.00
2018-03-18T09:55:52.730Z,8232.00
2018-03-18T09:56:52.717Z,7960.00
2018-03-18T09:57:52.706Z,8296.00
2018-03-18T09:58:52.688Z,8872.00
2018-03-18T09:59:52.673Z,10060.00
2018-03-18T10:00:52.660Z,10672.00
2018-03-18T10:01:52.647Z,11724.00
2018-03-18T10:02:52.637Z,8712.00
2018-03-18T10:03:52.623Z,8860.00
2018-03-18T10:04:52.609Z,9356.00
2018-03-18T10:05:52.596Z,8160.00
2018-03-18T10:06:52.582Z,7252.00
2018-03-18T10:07:52.568Z,7500.00
2018-03-18T10:08:52.555Z,8268.00
2018-03-18T10:09:52.541Z,8720.00
2018-03-18T10:10:52.524Z,8520.00
2018-03-18T10:11:52.514Z,7984.00
2018-03-18T10:12:52.497Z,7528.00
2018-03-18T10:13:52.485Z,7472.00
2018-03-18T10:14:52.473Z,7868.00
2018-03-18T10:15:52.458Z,8816.00
2018-03-18T10:16:52.444Z,9608.00
2018-03-18T10:17:52.433Z,9904.00
2018-03-18T10:18:52.422Z,9784.00
2018-03-18T10:19:52.409Z,9804.00
2018-03-18T10:20:52.396Z,10952.00
2018-03-18T10:21:52.383Z,12108.00
2018-03-18T10:22:52.367Z,12460.00
2018-03-18T10:23:52.354Z,11096.00
2018-03-18T10:24:52.339Z,10532.00
2018-03-18T10:25:52.327Z,9664.00
2018-03-18T10:26:52.322Z,8288.00
2018-03-18T10:27:52.306Z,7184.00
2018-03-18T10:28:52.291Z,6600.00
2018-03-18T10:29:52.279Z,6208.00
2018-03-18T10:30:52.266Z,5600.00
2018-03-18T10:31:52.252Z,5140.00
2018-03-18T10:32:52.240Z,4872.00
2018-03-18T10:33:52.227Z,5188.00
2018-03-18T10:34:52.216Z,5532.00
2018-03-18T10:35:52.197Z,5768.00
2018-03-18T10:36:52.184Z,6228.00
2018-03-18T10:37:52.172Z,6776.00
2018-03-18T10:38:52.159Z,7228.00
2018-03-18T10:39:52.144Z,6972.00
2018-03-18T10:40:52.130Z,6456.00
2018-03-18T10:41:52.158Z,6764.00
2018-03-18T10:42:52.108Z,7352.00
2018-03-18T10:43:52.096Z,7344.00
2018-03-18T10:44:52.082Z,6624.00
2018-03-18T10:45:52.070Z,6448.00
2018-03-18T10:46:52.058Z,6136.00
2018-03-18T10:47:52.041Z,6140.00
2018-03-18T10:48:52.028Z,6364.00
2018-03-18T10:49:52.014Z,6740.00
2018-03-18T10:50:51.998Z,7168.00
2018-03-18T10:51:51.985Z,7628.00
2018-03-18T10:52:51.976Z,8772.00
2018-03-18T10:53:51.962Z,9396.00
2018-03-18T10:54:51.944Z,8940.00
2018-03-18T10:55:51.928Z,8976.00
2018-03-18T10:56:51.917Z,8588.00
2018-03-18T10:57:51.906Z,9380.00
2018-03-18T10:58:51.893Z,10020.00
2018-03-18T10:59:51.878Z,9780.00
2018-03-18T11:00:51.865Z,9308.00
2018-03-18T11:01:51.853Z,8668.00
2018-03-18T11:02:51.840Z,8432.00
2018-03-18T11:03:51.824Z,8568.00
2018-03-18T11:04:51.814Z,8876.00
2018-03-18T11:05:51.798Z,10088.00
2018-03-18T11:06:51.781Z,11080.00
2018-03-18T11:07:51.768Z,11896.00
2018-03-18T11:08:51.837Z,12716.00
2018-03-18T11:09:51.746Z,14296.00
2018-03-18T11:10:51.729Z,14872.00
2018-03-18T11:11:51.715Z,14008.00
2018-03-18T11:12:51.702Z,13316.00
2018-03-18T11:13:51.691Z,12240.00
2018-03-18T11:14:51.681Z,13856.00
2018-03-18T11:15:51.667Z,14472.00
2018-03-18T11:16:51.655Z,14620.00
2018-03-18T11:17:51.643Z,13348.00
2018-03-18T11:18:51.630Z,11912.00
2018-03-18T11:19:51.617Z,10988.00
2018-03-18T11:20:51.605Z,9924.00
2018-03-18T11:21:51.592Z,10220.00
2018-03-18T11:22:51.577Z,11160.00
2018-03-18T11:23:51.590Z,11812.00
2018-03-18T11:24:51.551Z,12664.00
2018-03-18T11:25:51.538Z,11952.00
2018-03-18T11:26:51.547Z,10448.00
2018-03-18T11:27:51.517Z,10248.00
2018-03-18T11:28:51.505Z,11316.00
2018-03-18T11:29:51.493Z,11576.00
2018-03-18T11:30:51.482Z,10484.00
2018-03-18T11:31:51.464Z,10552.00
2018-03-18T11:32:51.452Z,11000.00
2018-03-18T11:33:51.441Z,11564.00
2018-03-18T11:34:51.427Z,11552.00
2018-03-18T11:35:51.414Z,12060.00
2018-03-18T11:36:51.402Z,11696.00
2018-03-18T11:37:51.390Z,10540.00
2018-03-18T11:38:51.382Z,10540.00
2018-03-18T11:39:51.375Z,11356.00
2018-03-18T11:40:51.357Z,11592.00
2018-03-18T11:41:51.346Z,11736.00
2018-03-18T11:42:51.334Z,11780.00
2018-03-18T11:43:51.321Z,11904.00
2018-03-18T11:44:51.308Z,11856.00
2018-03-18T11:45:51.296Z,12256.00
2018-03-18T11:46:51.282Z,12344.00
2018-03-18T11:47:51.268Z,13312.00
2018-03-18T11:48:51.257Z,14180.00
2018-03-18T11:49:51.244Z,14152.00
2018-03-18T11:50:51.236Z,13984.00
2018-03-18T11:51:51.223Z,13188.00
2018-03-18T11:52:51.209Z,13680.00
2018-03-18T11:53:51.196Z,12948.00
2018-03-18T11:54:51.188Z,14676.00
2018-03-18T11:55:51.186Z,17216.00
2018-03-18T11:56:51.165Z,15980.00
2018-03-18T11:57:51.152Z,13512.00
2018-03-18T11:58:51.183Z,14028.00
2018-03-18T11:59:51.128Z,14340.00
2018-03-18T12:00:51.117Z,14836.00
2018-03-18T12:01:51.106Z,13704.00
2018-03-18T12:02:51.091Z,12060.00
2018-03-18T12:03:51.079Z,12292.00
2018-03-18T12:04:51.068Z,12244.00
2018-03-18T12:05:51.057Z,11176.00
2018-03-18T12:06:51.043Z,10936.00
2018-03-18T12:07:51.039Z,10584.00
2018-03-18T12:08:51.021Z,9676.00
2018-03-18T12:09:51.009Z,9228.00
2018-03-18T12:10:51.001Z,8780.00
2018-03-18T12:11:50.989Z,8932.00
2018-03-18T12:12:50.978Z,9000.00
2018-03-18T12:13:50.970Z,9136.00
2018-03-18T12:14:50.963Z,8616.00
2018-03-18T12:15:50.944Z,9192.00
2018-03-18T12:16:50.931Z,9384.00
2018-03-18T12:17:50.919Z,10740.00
2018-03-18T12:18:50.905Z,11052.00
2018-03-18T12:19:50.891Z,10628.00
2018-03-18T12:20:50.880Z,10612.00
2018-03-18T12:21:50.869Z,10380.00
2018-03-18T12:22:50.858Z,10624.00
2018-03-18T12:23:50.851Z,11752.00
2018-03-18T12:24:50.832Z,12212.00
2018-03-18T12:25:50.821Z,13152.00
2018-03-18T12:26:50.813Z,11424.00
2018-03-18T12:27:50.800Z,12292.00
2018-03-18T12:28:50.789Z,12772.00
2018-03-18T12:29:50.778Z,12204.00
2018-03-18T12:30:50.764Z,12000.00
2018-03-18T12:31:50.751Z,11124.00
2018-03-18T12:32:50.740Z,10504.00
2018-03-18T12:33:50.733Z,10572.00
2018-03-18T12:34:50.721Z,10900.00
2018-03-18T12:35:50.709Z,11812.00
2018-03-18T12:36:50.698Z,11776.00